sensor_id;sensor_type;location;lat;lon;timestamp;pressure;altitude;pressure_sealevel;temperature;humidity
73821;BME280;62150;43.582;1.456;2022-09-20T06:20:15;100340.72;;;12.72;56.48
73821;BME280;62150;43.582;1.456;2022-09-20T06:22:47;100346.63;;;12.74;55.48
73821;BME280;62150;43.582;1.456;2022-09-20T06:25:19;100351.88;;;12.53;56.77
73821;BME280;62150;43.582;1.456;2022-09-20T06:27:51;100352.47;;;12.59;57.04
73821;BME280;62150;43.582;1.456;2022-09-20T06:30:24;100356.56;;;12.63;57.09
73821;BME280;62150;43.582;1.456;2022-09-20T06:32:55;100349.41;;;12.70;56.78
73821;BME280;62150;43.582;1.456;2022-09-20T06:35:32;100360.38;;;12.75;56.54
73821;BME280;62150;43.582;1.456;2022-09-20T06:38:16;100358.19;;;12.66;56.89
73821;BME280;62150;43.582;1.456;2022-09-20T06:41:03;100351.72;;;12.76;56.28
73821;BME280;62150;43.582;1.456;2022-09-20T06:43:49;100355.28;;;12.73;57.14
73821;BME280;62150;43.582;1.456;2022-09-20T06:46:16;100357.59;;;12.80;57.07
73821;BME280;62150;43.582;1.456;2022-09-20T06:48:44;100360.94;;;12.82;56.04
73821;BME280;62150;43.582;1.456;2022-09-20T06:51:19;100358.19;;;12.85;55.43
73821;BME280;62150;43.582;1.456;2022-09-20T06:53:48;100356.59;;;12.82;57.00
73821;BME280;62150;43.582;1.456;2022-09-20T06:56:18;100357.09;;;12.90;55.52
73821;BME280;62150;43.582;1.456;2022-09-20T06:58:47;100362.38;;;12.87;56.00
73821;BME280;62150;43.582;1.456;2022-09-20T07:01:15;100369.56;;;12.81;57.60
73821;BME280;62150;43.582;1.456;2022-09-20T07:03:42;100368.44;;;12.86;56.61
73821;BME280;62150;43.582;1.456;2022-09-20T07:06:10;100367.47;;;12.89;56.48
73821;BME280;62150;43.582;1.456;2022-09-20T07:08:39;100368.72;;;12.99;57.19
73821;BME280;62150;43.582;1.456;2022-09-20T07:11:12;100368.47;;;13.05;56.41
73821;BME280;62150;43.582;1.456;2022-09-20T07:13:41;100371.75;;;13.08;56.63
73821;BME280;62150;43.582;1.456;2022-09-20T07:16:12;100374.03;;;13.15;56.75
73821;BME280;62150;43.582;1.456;2022-09-20T07:18:40;100373.91;;;13.18;56.45
73821;BME280;62150;43.582;1.456;2022-09-20T07:21:09;100378.16;;;13.19;55.27
73821;BME280;62150;43.582;1.456;2022-09-20T07:23:38;100373.00;;;13.19;54.66
73821;BME280;62150;43.582;1.456;2022-09-20T07:26:11;100375.38;;;13.23;54.36
73821;BME280;62150;43.582;1.456;2022-09-20T07:28:42;100374.31;;;13.27;55.53
73821;BME280;62150;43.582;1.456;2022-09-20T07:31:10;100381.03;;;13.31;54.26
73821;BME280;62150;43.582;1.456;2022-09-20T07:33:37;100384.28;;;13.35;54.25
73821;BME280;62150;43.582;1.456;2022-09-20T07:36:05;100377.25;;;13.38;53.84
73821;BME280;62150;43.582;1.456;2022-09-20T07:38:33;100383.66;;;13.49;53.75
73821;BME280;62150;43.582;1.456;2022-09-20T07:41:02;100386.84;;;13.54;53.96
73821;BME280;62150;43.582;1.456;2022-09-20T07:43:30;100381.84;;;13.51;53.91
73821;BME280;62150;43.582;1.456;2022-09-20T07:45:58;100383.22;;;13.58;53.45
73821;BME280;62150;43.582;1.456;2022-09-20T07:48:28;100385.50;;;13.64;52.45
73821;BME280;62150;43.582;1.456;2022-09-20T07:50:57;100389.69;;;13.66;53.17
73821;BME280;62150;43.582;1.456;2022-09-20T07:53:27;100389.53;;;13.69;52.54
73821;BME280;62150;43.582;1.456;2022-09-20T07:56:04;100391.28;;;13.69;53.12
73821;BME280;62150;43.582;1.456;2022-09-20T07:58:34;100390.84;;;13.78;53.29
73821;BME280;62150;43.582;1.456;2022-09-20T08:01:03;100391.28;;;13.86;52.80
73821;BME280;62150;43.582;1.456;2022-09-20T08:03:32;100388.50;;;13.91;52.52
73821;BME280;62150;43.582;1.456;2022-09-20T08:06:00;100388.03;;;14.00;51.65
73821;BME280;62150;43.582;1.456;2022-09-20T08:08:30;100388.66;;;14.05;52.78
73821;BME280;62150;43.582;1.456;2022-09-20T08:11:03;100393.59;;;14.09;51.54
73821;BME280;62150;43.582;1.456;2022-09-20T08:13:38;100392.31;;;14.18;51.76
73821;BME280;62150;43.582;1.456;2022-09-20T08:16:08;100395.63;;;14.37;51.61
73821;BME280;62150;43.582;1.456;2022-09-20T08:18:43;100400.72;;;14.39;51.05
73821;BME280;62150;43.582;1.456;2022-09-20T08:21:11;100396.81;;;14.49;51.38
73821;BME280;62150;43.582;1.456;2022-09-20T08:23:41;100403.41;;;14.55;50.46
73821;BME280;62150;43.582;1.456;2022-09-20T08:26:12;100395.56;;;14.56;51.31
73821;BME280;62150;43.582;1.456;2022-09-20T08:28:43;100395.41;;;14.59;51.40
73821;BME280;62150;43.582;1.456;2022-09-20T08:31:13;100391.50;;;14.68;51.27
73821;BME280;62150;43.582;1.456;2022-09-20T08:33:42;100401.81;;;14.85;50.62
73821;BME280;62150;43.582;1.456;2022-09-20T08:36:12;100406.00;;;14.88;50.46
73821;BME280;62150;43.582;1.456;2022-09-20T08:38:40;100406.25;;;14.99;50.11
73821;BME280;62150;43.582;1.456;2022-09-20T08:41:13;100413.09;;;15.00;49.68
73821;BME280;62150;43.582;1.456;2022-09-20T08:43:45;100411.44;;;14.99;49.71
73821;BME280;62150;43.582;1.456;2022-09-20T08:46:17;100413.38;;;15.11;49.34
73821;BME280;62150;43.582;1.456;2022-09-20T08:48:46;100409.94;;;15.26;49.41
73821;BME280;62150;43.582;1.456;2022-09-20T08:51:15;100400.84;;;15.35;49.28
73821;BME280;62150;43.582;1.456;2022-09-20T08:53:46;100405.03;;;15.53;48.87
73821;BME280;62150;43.582;1.456;2022-09-20T08:56:17;100409.53;;;15.65;48.47
73821;BME280;62150;43.582;1.456;2022-09-20T08:58:45;100404.69;;;15.75;48.53
73821;BME280;62150;43.582;1.456;2022-09-20T09:01:19;100409.53;;;15.81;48.19
73821;BME280;62150;43.582;1.456;2022-09-20T09:03:50;100409.13;;;15.89;48.15
73821;BME280;62150;43.582;1.456;2022-09-20T09:06:19;100406.97;;;15.95;48.18
73821;BME280;62150;43.582;1.456;2022-09-20T09:08:50;100402.13;;;16.05;48.29
73821;BME280;62150;43.582;1.456;2022-09-20T09:11:21;100402.25;;;16.18;48.10
73821;BME280;62150;43.582;1.456;2022-09-20T09:13:52;100407.91;;;16.24;47.46
73821;BME280;62150;43.582;1.456;2022-09-20T09:16:22;100401.53;;;16.30;47.49
73821;BME280;62150;43.582;1.456;2022-09-20T09:18:51;100406.75;;;16.44;47.40
73821;BME280;62150;43.582;1.456;2022-09-20T09:21:22;100404.44;;;16.54;47.12
73821;BME280;62150;43.582;1.456;2022-09-20T09:23:52;100398.91;;;16.60;46.82
73821;BME280;62150;43.582;1.456;2022-09-20T09:26:27;100397.91;;;16.77;46.33
73821;BME280;62150;43.582;1.456;2022-09-20T09:29:10;100392.06;;;16.87;45.42
73821;BME280;62150;43.582;1.456;2022-09-20T09:31:41;100397.72;;;16.94;45.55
73821;BME280;62150;43.582;1.456;2022-09-20T09:34:23;100393.63;;;17.04;45.32
73821;BME280;62150;43.582;1.456;2022-09-20T09:36:51;100394.94;;;17.38;44.88
73821;BME280;62150;43.582;1.456;2022-09-20T09:39:25;100389.00;;;17.36;44.29
73821;BME280;62150;43.582;1.456;2022-09-20T09:41:55;100386.38;;;17.50;44.25
73821;BME280;62150;43.582;1.456;2022-09-20T09:44:27;100386.44;;;17.63;44.14
73821;BME280;62150;43.582;1.456;2022-09-20T09:46:56;100378.94;;;17.58;44.20
73821;BME280;62150;43.582;1.456;2022-09-20T09:49:24;100375.31;;;17.61;44.45
73821;BME280;62150;43.582;1.456;2022-09-20T09:52:10;100383.94;;;17.88;43.05
73821;BME280;62150;43.582;1.456;2022-09-20T09:54:41;100376.13;;;17.88;43.35
73821;BME280;62150;43.582;1.456;2022-09-20T09:57:31;100380.00;;;17.95;43.34
73821;BME280;62150;43.582;1.456;2022-09-20T10:00:08;100375.53;;;17.97;43.76
73821;BME280;62150;43.582;1.456;2022-09-20T10:05:43;100383.88;;;18.40;41.37
73821;BME280;62150;43.582;1.456;2022-09-20T10:08:22;100380.66;;;18.37;41.37
73821;BME280;62150;43.582;1.456;2022-09-20T10:11:00;100382.94;;;18.41;42.54
73821;BME280;62150;43.582;1.456;2022-09-20T10:13:37;100372.91;;;18.62;40.91
73821;BME280;62150;43.582;1.456;2022-09-20T10:16:13;100364.88;;;18.65;42.17
73821;BME280;62150;43.582;1.456;2022-09-20T10:18:53;100369.75;;;18.57;42.21
73821;BME280;62150;43.582;1.456;2022-09-20T10:21:39;100366.34;;;18.69;41.18
73821;BME280;62150;43.582;1.456;2022-09-20T10:24:24;100365.25;;;18.85;41.25
73821;BME280;62150;43.582;1.456;2022-09-20T10:27:11;100369.09;;;18.92;40.61
73821;BME280;62150;43.582;1.456;2022-09-20T10:29:56;100367.47;;;19.15;40.91
73821;BME280;62150;43.582;1.456;2022-09-20T10:32:36;100366.09;;;19.22;41.52
73821;BME280;62150;43.582;1.456;2022-09-20T10:35:17;100369.72;;;19.32;39.86
73821;BME280;62150;43.582;1.456;2022-09-20T10:38:03;100360.84;;;19.34;40.47
73821;BME280;62150;43.582;1.456;2022-09-20T10:40:35;100371.31;;;19.46;40.22
73821;BME280;62150;43.582;1.456;2022-09-20T10:43:34;100363.81;;;19.41;40.27
73821;BME280;62150;43.582;1.456;2022-09-20T10:46:13;100363.47;;;19.58;40.22
73821;BME280;62150;43.582;1.456;2022-09-20T10:48:46;100364.16;;;19.73;40.06
73821;BME280;62150;43.582;1.456;2022-09-20T10:51:23;100364.38;;;19.81;39.94
73821;BME280;62150;43.582;1.456;2022-09-20T10:53:59;100359.72;;;19.97;39.12
73821;BME280;62150;43.582;1.456;2022-09-20T10:56:35;100358.50;;;19.90;38.82
73821;BME280;62150;43.582;1.456;2022-09-20T10:59:18;100355.44;;;19.96;39.26
73821;BME280;62150;43.582;1.456;2022-09-20T11:02:08;100359.50;;;20.12;39.08
73821;BME280;62150;43.582;1.456;2022-09-20T11:07:34;100352.44;;;20.36;37.99
73821;BME280;62150;43.582;1.456;2022-09-20T11:10:13;100349.88;;;20.58;37.31
73821;BME280;62150;43.582;1.456;2022-09-20T11:12:46;100348.91;;;20.48;36.98
73821;BME280;62150;43.582;1.456;2022-09-20T11:15:20;100348.44;;;20.54;37.06
73821;BME280;62150;43.582;1.456;2022-09-20T11:18:00;100350.69;;;20.70;36.60
73821;BME280;62150;43.582;1.456;2022-09-20T11:20:32;100347.38;;;20.79;36.24
73821;BME280;62150;43.582;1.456;2022-09-20T11:23:04;100346.19;;;20.72;35.82
73821;BME280;62150;43.582;1.456;2022-09-20T11:25:40;100340.22;;;20.92;35.33
73821;BME280;62150;43.582;1.456;2022-09-20T11:28:13;100339.50;;;21.13;35.39
73821;BME280;62150;43.582;1.456;2022-09-20T11:30:50;100343.06;;;21.12;34.82
73821;BME280;62150;43.582;1.456;2022-09-20T11:33:25;100337.72;;;21.13;34.14
73821;BME280;62150;43.582;1.456;2022-09-20T11:35:58;100347.16;;;21.36;34.12
73821;BME280;62150;43.582;1.456;2022-09-20T11:38:30;100340.75;;;21.40;33.96
73821;BME280;62150;43.582;1.456;2022-09-20T11:41:06;100338.13;;;21.40;34.14
73821;BME280;62150;43.582;1.456;2022-09-20T11:43:36;100333.84;;;21.39;34.12
73821;BME280;62150;43.582;1.456;2022-09-20T11:46:10;100332.13;;;21.50;34.03
73821;BME280;62150;43.582;1.456;2022-09-20T11:48:44;100332.84;;;21.52;33.36
73821;BME280;62150;43.582;1.456;2022-09-20T11:51:33;100336.56;;;21.70;33.56
73821;BME280;62150;43.582;1.456;2022-09-20T11:54:18;100333.63;;;21.84;32.62
73821;BME280;62150;43.582;1.456;2022-09-20T11:56:54;100332.97;;;21.82;32.63
73821;BME280;62150;43.582;1.456;2022-09-20T11:59:28;100323.38;;;21.92;32.24
73821;BME280;62150;43.582;1.456;2022-09-20T12:01:59;100324.03;;;22.05;31.97
73821;BME280;62150;43.582;1.456;2022-09-20T12:04:44;100313.84;;;22.02;30.72
73821;BME280;62150;43.582;1.456;2022-09-20T12:07:22;100319.25;;;22.11;31.30
73821;BME280;62150;43.582;1.456;2022-09-20T12:09:56;100327.84;;;22.22;31.78
73821;BME280;62150;43.582;1.456;2022-09-20T12:12:36;100317.50;;;22.21;31.86
73821;BME280;62150;43.582;1.456;2022-09-20T12:15:06;100316.34;;;22.34;31.14
73821;BME280;62150;43.582;1.456;2022-09-20T12:21:16;100297.44;;;22.31;30.93
73821;BME280;62150;43.582;1.456;2022-09-20T12:26:45;100297.84;;;22.66;30.12
73821;BME280;62150;43.582;1.456;2022-09-20T12:32:53;100289.91;;;22.78;27.74
73821;BME280;62150;43.582;1.456;2022-09-20T12:36:11;100284.44;;;23.00;27.24
73821;BME280;62150;43.582;1.456;2022-09-20T12:39:13;100282.53;;;23.12;26.03
73821;BME280;62150;43.582;1.456;2022-09-20T12:41:47;100274.38;;;23.24;26.01
73821;BME280;62150;43.582;1.456;2022-09-20T12:44:29;100268.19;;;23.25;26.41
73821;BME280;62150;43.582;1.456;2022-09-20T12:47:01;100263.91;;;23.34;25.76
73821;BME280;62150;43.582;1.456;2022-09-20T12:49:50;100266.53;;;23.34;25.72
73821;BME280;62150;43.582;1.456;2022-09-20T12:52:49;100261.84;;;23.37;25.85
73821;BME280;62150;43.582;1.456;2022-09-20T12:55:45;100257.00;;;23.62;25.74
73821;BME280;62150;43.582;1.456;2022-09-20T12:58:24;100252.72;;;23.70;24.27
73821;BME280;62150;43.582;1.456;2022-09-20T13:10:36;100242.13;;;23.99;24.56
73821;BME280;62150;43.582;1.456;2022-09-20T13:13:23;100238.38;;;24.12;25.45
73821;BME280;62150;43.582;1.456;2022-09-20T13:15:54;100229.97;;;23.98;24.67
73821;BME280;62150;43.582;1.456;2022-09-20T13:18:23;100236.56;;;24.12;25.78
73821;BME280;62150;43.582;1.456;2022-09-20T13:20:54;100226.53;;;23.98;24.08
73821;BME280;62150;43.582;1.456;2022-09-20T13:23:26;100228.25;;;24.26;24.28
73821;BME280;62150;43.582;1.456;2022-09-20T13:25:57;100224.34;;;24.30;24.79
73821;BME280;62150;43.582;1.456;2022-09-20T13:28:41;100226.84;;;24.32;24.67
73821;BME280;62150;43.582;1.456;2022-09-20T13:31:23;100217.31;;;24.31;24.70
73821;BME280;62150;43.582;1.456;2022-09-20T13:33:51;100208.56;;;24.40;23.73
73821;BME280;62150;43.582;1.456;2022-09-20T13:36:25;100208.75;;;24.56;23.78
73821;BME280;62150;43.582;1.456;2022-09-20T13:38:55;100213.09;;;24.65;23.81
73821;BME280;62150;43.582;1.456;2022-09-20T13:41:27;100215.41;;;24.68;23.96
73821;BME280;62150;43.582;1.456;2022-09-20T13:43:57;100215.31;;;24.60;22.84
73821;BME280;62150;43.582;1.456;2022-09-20T13:46:29;100205.75;;;24.69;22.90
73821;BME280;62150;43.582;1.456;2022-09-20T13:49:13;100207.56;;;24.86;23.28
73821;BME280;62150;43.582;1.456;2022-09-20T13:51:42;100210.19;;;24.86;22.86
73821;BME280;62150;43.582;1.456;2022-09-20T13:54:18;100206.66;;;24.78;22.72
73821;BME280;62150;43.582;1.456;2022-09-20T13:56:48;100211.19;;;25.03;23.06
73821;BME280;62150;43.582;1.456;2022-09-20T13:59:17;100204.56;;;24.99;22.74
73821;BME280;62150;43.582;1.456;2022-09-20T14:01:49;100203.44;;;25.01;22.89
73821;BME280;62150;43.582;1.456;2022-09-20T14:04:19;100194.59;;;25.02;21.79
73821;BME280;62150;43.582;1.456;2022-09-20T14:06:48;100201.25;;;24.97;21.34
73821;BME280;62150;43.582;1.456;2022-09-20T14:09:22;100196.91;;;25.23;21.12
73821;BME280;62150;43.582;1.456;2022-09-20T14:11:54;100201.03;;;25.26;21.87
73821;BME280;62150;43.582;1.456;2022-09-20T14:14:23;100191.69;;;25.31;21.13
73821;BME280;62150;43.582;1.456;2022-09-20T14:16:53;100197.22;;;25.20;20.06
73821;BME280;62150;43.582;1.456;2022-09-20T14:19:26;100190.94;;;25.39;20.46
73821;BME280;62150;43.582;1.456;2022-09-20T14:21:57;100184.84;;;25.38;19.83
73821;BME280;62150;43.582;1.456;2022-09-20T14:24:28;100183.31;;;25.54;20.64
73821;BME280;62150;43.582;1.456;2022-09-20T14:29:46;100175.94;;;25.57;19.83
73821;BME280;62150;43.582;1.456;2022-09-20T14:32:30;100175.41;;;25.80;19.66
73821;BME280;62150;43.582;1.456;2022-09-20T14:35:02;100183.72;;;25.67;19.76
73821;BME280;62150;43.582;1.456;2022-09-20T14:37:35;100186.69;;;25.46;19.61
73821;BME280;62150;43.582;1.456;2022-09-20T14:40:20;100180.72;;;25.88;19.46
73821;BME280;62150;43.582;1.456;2022-09-20T14:42:52;100179.28;;;26.01;19.50
73821;BME280;62150;43.582;1.456;2022-09-20T14:45:23;100176.41;;;25.79;19.37
73821;BME280;62150;43.582;1.456;2022-09-20T14:47:54;100172.38;;;26.00;19.92
73821;BME280;62150;43.582;1.456;2022-09-20T14:50:25;100177.22;;;25.79;19.15
73821;BME280;62150;43.582;1.456;2022-09-20T14:53:05;100176.50;;;25.95;19.30
73821;BME280;62150;43.582;1.456;2022-09-20T14:55:34;100175.47;;;25.88;18.98
73821;BME280;62150;43.582;1.456;2022-09-20T14:58:08;100168.66;;;25.77;19.04
73821;BME280;62150;43.582;1.456;2022-09-20T15:00:51;100168.66;;;25.77;19.03
73821;BME280;62150;43.582;1.456;2022-09-20T15:03:25;100161.03;;;26.00;19.10
73821;BME280;62150;43.582;1.456;2022-09-20T15:05:53;100164.66;;;25.99;18.92
73821;BME280;62150;43.582;1.456;2022-09-20T15:08:21;100161.72;;;26.10;19.21
73821;BME280;62150;43.582;1.456;2022-09-20T15:10:49;100154.72;;;26.27;18.56
73821;BME280;62150;43.582;1.456;2022-09-20T15:13:18;100168.94;;;26.42;19.12
73821;BME280;62150;43.582;1.456;2022-09-20T15:15:50;100164.44;;;26.26;19.41
73821;BME280;62150;43.582;1.456;2022-09-20T15:18:21;100158.16;;;26.19;19.57
73821;BME280;62150;43.582;1.456;2022-09-20T15:20:49;100157.06;;;26.38;19.01
73821;BME280;62150;43.582;1.456;2022-09-20T15:23:17;100161.34;;;26.31;19.74
73821;BME280;62150;43.582;1.456;2022-09-20T15:25:48;100155.13;;;26.56;19.07
73821;BME280;62150;43.582;1.456;2022-09-20T15:28:18;100156.91;;;26.31;19.15
73821;BME280;62150;43.582;1.456;2022-09-20T15:30:47;100157.41;;;26.43;19.73
73821;BME280;62150;43.582;1.456;2022-09-20T15:33:16;100153.81;;;26.68;20.00
73821;BME280;62150;43.582;1.456;2022-09-20T15:35:45;100149.38;;;26.77;19.33
73821;BME280;62150;43.582;1.456;2022-09-20T15:38:13;100155.91;;;26.41;19.91
73821;BME280;62150;43.582;1.456;2022-09-20T15:40:43;100159.47;;;26.23;20.51
73821;BME280;62150;43.582;1.456;2022-09-20T15:43:13;100157.94;;;26.55;19.64
73821;BME280;62150;43.582;1.456;2022-09-20T15:45:47;100157.22;;;26.36;20.24
73821;BME280;62150;43.582;1.456;2022-09-20T15:48:16;100156.75;;;26.49;20.18
73821;BME280;62150;43.582;1.456;2022-09-20T15:50:58;100158.44;;;26.58;20.37
73821;BME280;62150;43.582;1.456;2022-09-20T15:53:27;100154.44;;;26.38;19.63
73821;BME280;62150;43.582;1.456;2022-09-20T15:55:57;100153.75;;;26.36;19.44
73821;BME280;62150;43.582;1.456;2022-09-20T15:58:27;100158.63;;;26.15;19.95
73821;BME280;62150;43.582;1.456;2022-09-20T16:01:01;100169.94;;;26.49;19.04
73821;BME280;62150;43.582;1.456;2022-09-20T16:03:30;100161.41;;;26.55;20.03
73821;BME280;62150;43.582;1.456;2022-09-20T16:05:59;100173.88;;;26.45;19.72
73821;BME280;62150;43.582;1.456;2022-09-20T16:08:30;100175.53;;;26.04;19.76
73821;BME280;62150;43.582;1.456;2022-09-20T16:10:59;100175.19;;;26.33;19.52
73821;BME280;62150;43.582;1.456;2022-09-20T16:13:27;100170.53;;;26.27;19.38
73821;BME280;62150;43.582;1.456;2022-09-20T16:15:57;100166.81;;;26.54;19.40
73821;BME280;62150;43.582;1.456;2022-09-20T16:18:26;100163.06;;;26.64;19.62
73821;BME280;62150;43.582;1.456;2022-09-20T16:21:13;100164.94;;;26.30;19.82
73821;BME280;62150;43.582;1.456;2022-09-20T16:23:45;100166.41;;;26.24;19.45
73821;BME280;62150;43.582;1.456;2022-09-20T16:26:13;100170.91;;;26.40;19.54
73821;BME280;62150;43.582;1.456;2022-09-20T16:28:41;100171.91;;;26.47;19.95
73821;BME280;62150;43.582;1.456;2022-09-20T16:34:22;100174.53;;;26.05;19.98
73821;BME280;62150;43.582;1.456;2022-09-20T16:36:54;100179.66;;;26.07;19.41
73821;BME280;62150;43.582;1.456;2022-09-20T16:39:24;100180.25;;;25.92;19.75
73821;BME280;62150;43.582;1.456;2022-09-20T16:41:54;100171.47;;;26.18;19.45
73821;BME280;62150;43.582;1.456;2022-09-20T16:44:22;100174.66;;;26.29;19.09
73821;BME280;62150;43.582;1.456;2022-09-20T16:46:50;100174.41;;;26.15;19.38
73821;BME280;62150;43.582;1.456;2022-09-20T16:49:18;100182.78;;;26.10;19.76
73821;BME280;62150;43.582;1.456;2022-09-20T16:51:46;100179.97;;;26.03;19.44
73821;BME280;62150;43.582;1.456;2022-09-20T16:54:15;100176.53;;;26.11;20.15
73821;BME280;62150;43.582;1.456;2022-09-20T16:56:45;100181.09;;;26.01;19.66
73821;BME280;62150;43.582;1.456;2022-09-20T16:59:14;100182.22;;;25.64;19.18
73821;BME280;62150;43.582;1.456;2022-09-20T17:01:43;100186.25;;;25.51;19.65
73821;BME280;62150;43.582;1.456;2022-09-20T17:04:11;100181.56;;;25.62;19.67
73821;BME280;62150;43.582;1.456;2022-09-20T17:06:40;100191.38;;;25.78;19.42
73821;BME280;62150;43.582;1.456;2022-09-20T17:09:10;100186.63;;;25.56;20.10
73821;BME280;62150;43.582;1.456;2022-09-20T17:11:40;100181.22;;;25.39;20.01
73821;BME280;62150;43.582;1.456;2022-09-20T17:14:09;100190.47;;;25.44;20.30
73821;BME280;62150;43.582;1.456;2022-09-20T17:16:41;100187.94;;;25.34;19.83
73821;BME280;62150;43.582;1.456;2022-09-20T17:19:10;100196.59;;;25.26;20.73
73821;BME280;62150;43.582;1.456;2022-09-20T17:21:39;100193.97;;;25.09;20.07
73821;BME280;62150;43.582;1.456;2022-09-20T17:24:10;100200.44;;;25.14;21.07
73821;BME280;62150;43.582;1.456;2022-09-20T17:26:40;100189.91;;;24.79;21.38
73821;BME280;62150;43.582;1.456;2022-09-20T17:29:11;100197.66;;;24.80;20.98
73821;BME280;62150;43.582;1.456;2022-09-20T17:31:42;100199.56;;;24.60;20.96
73821;BME280;62150;43.582;1.456;2022-09-20T17:34:11;100193.56;;;24.50;21.75
73821;BME280;62150;43.582;1.456;2022-09-20T17:36:44;100193.53;;;24.32;21.97
73821;BME280;62150;43.582;1.456;2022-09-20T17:39:15;100201.25;;;24.34;22.05
73821;BME280;62150;43.582;1.456;2022-09-20T17:41:45;100207.94;;;24.19;22.55
73821;BME280;62150;43.582;1.456;2022-09-20T17:44:16;100200.66;;;24.13;21.67
73821;BME280;62150;43.582;1.456;2022-09-20T17:46:45;100207.19;;;23.99;22.49
73821;BME280;62150;43.582;1.456;2022-09-20T17:49:14;100200.63;;;23.85;22.79
73821;BME280;62150;43.582;1.456;2022-09-20T17:51:44;100201.38;;;23.68;22.42
73821;BME280;62150;43.582;1.456;2022-09-20T17:54:13;100208.25;;;23.69;22.74
73821;BME280;62150;43.582;1.456;2022-09-20T17:56:41;100209.66;;;23.63;22.63
73821;BME280;62150;43.582;1.456;2022-09-20T17:59:09;100219.47;;;23.61;23.54
73821;BME280;62150;43.582;1.456;2022-09-20T18:01:38;100216.03;;;23.51;23.42
73821;BME280;62150;43.582;1.456;2022-09-20T18:04:06;100215.75;;;23.45;23.65
73821;BME280;62150;43.582;1.456;2022-09-20T18:06:36;100217.41;;;23.36;23.25
73821;BME280;62150;43.582;1.456;2022-09-20T18:09:07;100221.03;;;23.16;24.68
73821;BME280;62150;43.582;1.456;2022-09-20T18:11:38;100216.88;;;23.13;24.17
73821;BME280;62150;43.582;1.456;2022-09-20T18:14:10;100222.66;;;23.07;24.36
73821;BME280;62150;43.582;1.456;2022-09-20T18:16:40;100226.66;;;23.01;24.03
73821;BME280;62150;43.582;1.456;2022-09-20T18:19:09;100234.09;;;22.96;24.65
73821;BME280;62150;43.582;1.456;2022-09-20T18:21:38;100233.41;;;22.94;25.10
73821;BME280;62150;43.582;1.456;2022-09-20T18:24:07;100235.59;;;22.89;24.99
73821;BME280;62150;43.582;1.456;2022-09-20T18:26:37;100234.25;;;22.85;24.68
73821;BME280;62150;43.582;1.456;2022-09-20T18:29:06;100232.28;;;22.87;25.80
73821;BME280;62150;43.582;1.456;2022-09-20T18:31:36;100235.63;;;22.80;26.02
73821;BME280;62150;43.582;1.456;2022-09-20T18:34:05;100240.84;;;22.80;25.47
73821;BME280;62150;43.582;1.456;2022-09-20T18:36:34;100245.59;;;22.65;26.25
73821;BME280;62150;43.582;1.456;2022-09-20T18:39:03;100250.94;;;22.54;25.77
73821;BME280;62150;43.582;1.456;2022-09-20T18:41:33;100246.41;;;22.46;26.06
73821;BME280;62150;43.582;1.456;2022-09-20T18:44:03;100257.41;;;22.40;26.21
73821;BME280;62150;43.582;1.456;2022-09-20T18:46:32;100258.63;;;22.36;27.24
73821;BME280;62150;43.582;1.456;2022-09-20T18:49:06;100256.28;;;22.33;27.44
73821;BME280;62150;43.582;1.456;2022-09-20T18:51:35;100258.13;;;22.21;27.36
73821;BME280;62150;43.582;1.456;2022-09-20T18:54:03;100264.06;;;22.14;27.95
73821;BME280;62150;43.582;1.456;2022-09-20T18:56:32;100264.47;;;21.98;28.19
73821;BME280;62150;43.582;1.456;2022-09-20T18:59:03;100262.00;;;21.96;28.19
73821;BME280;62150;43.582;1.456;2022-09-20T19:01:46;100267.88;;;21.89;28.24
73821;BME280;62150;43.582;1.456;2022-09-20T19:07:12;100282.97;;;21.85;28.49
73821;BME280;62150;43.582;1.456;2022-09-20T19:09:48;100275.41;;;21.82;28.60
73821;BME280;62150;43.582;1.456;2022-09-20T19:12:22;100289.16;;;21.84;28.94
73821;BME280;62150;43.582;1.456;2022-09-20T19:15:18;100287.22;;;21.77;28.69
73821;BME280;62150;43.582;1.456;2022-09-20T19:18:06;100290.22;;;21.72;29.09
73821;BME280;62150;43.582;1.456;2022-09-20T19:20:42;100295.56;;;21.70;29.37
73821;BME280;62150;43.582;1.456;2022-09-20T19:23:27;100298.69;;;21.64;29.13
73821;BME280;62150;43.582;1.456;2022-09-20T19:26:04;100300.00;;;21.59;29.49
73821;BME280;62150;43.582;1.456;2022-09-20T19:28:33;100293.75;;;21.50;29.59
73821;BME280;62150;43.582;1.456;2022-09-20T19:31:04;100298.94;;;21.40;29.70
73821;BME280;62150;43.582;1.456;2022-09-20T19:33:33;100298.34;;;21.37;29.48
73821;BME280;62150;43.582;1.456;2022-09-20T19:36:02;100301.31;;;21.32;29.38
73821;BME280;62150;43.582;1.456;2022-09-20T19:38:34;100305.50;;;21.24;29.95
73821;BME280;62150;43.582;1.456;2022-09-20T19:41:21;100303.13;;;21.21;29.72
73821;BME280;62150;43.582;1.456;2022-09-20T19:44:00;100314.69;;;21.07;30.08
73821;BME280;62150;43.582;1.456;2022-09-20T19:46:40;100307.56;;;21.09;30.00
73821;BME280;62150;43.582;1.456;2022-09-20T19:49:15;100303.66;;;21.03;29.92
73821;BME280;62150;43.582;1.456;2022-09-20T19:51:48;100316.34;;;20.97;30.11
73821;BME280;62150;43.582;1.456;2022-09-20T19:54:16;100315.53;;;20.96;30.19
73821;BME280;62150;43.582;1.456;2022-09-20T19:56:49;100308.19;;;20.90;30.40
73821;BME280;62150;43.582;1.456;2022-09-20T19:59:19;100313.88;;;20.95;30.99
73821;BME280;62150;43.582;1.456;2022-09-20T20:01:49;100310.66;;;20.92;31.03
73821;BME280;62150;43.582;1.456;2022-09-20T20:04:18;100307.63;;;20.76;30.96
73821;BME280;62150;43.582;1.456;2022-09-20T20:06:53;100320.69;;;20.76;31.78
73821;BME280;62150;43.582;1.456;2022-09-20T20:09:31;100318.44;;;20.71;30.73
73821;BME280;62150;43.582;1.456;2022-09-20T20:12:10;100319.97;;;20.73;31.21
73821;BME280;62150;43.582;1.456;2022-09-20T20:14:47;100319.25;;;20.71;31.82